Time;durP1;ratioP1;P1;durP2;ratioP2;P2;SDS_P1;SDS_P2;PMS_P1;PMS_P2;Temp;Humidity;BMP_temperature;BMP_pressure;BME280_temperature;BME280_humidity;BME280_pressure;Samples;Min_cycle;Max_cycle;Signal;HPM_P1;HPM_P2
2021/06/30 00:00:25;;;;;;;1999.90;999.90;;;;;;;18.29;51.78;100302.22;4824752;29;97862;-70
2021/06/30 00:02:58;;;;;;;1999.90;999.90;;;;;;;18.13;52.26;100298.91;4807279;29;97831;-71
2021/06/30 00:05:31;;;;;;;1999.90;999.90;;;;;;;18.10;52.24;100303.44;4824364;29;97361;-70
2021/06/30 00:08:05;;;;;;;1999.90;999.90;;;;;;;18.03;52.38;100298.16;4820946;29;100591;-70
2021/06/30 00:10:33;;;;;;;1999.90;999.90;;;;;;;18.04;52.55;100297.25;4822865;29;100482;-69
2021/06/30 00:13:01;;;;;;;1999.90;999.90;;;;;;;18.01;52.49;100302.69;4822839;29;98915;-70
2021/06/30 00:15:34;;;;;;;1999.90;999.90;;;;;;;17.99;52.63;100306.31;4821758;29;97143;-70
2021/06/30 00:18:07;;;;;;;1999.90;999.90;;;;;;;18.00;52.71;100290.13;4823310;29;97921;-70
2021/06/30 00:20:39;;;;;;;1999.90;999.90;;;;;;;18.04;52.69;100297.25;4822275;29;100607;-69
2021/06/30 00:23:13;;;;;;;1999.90;999.90;;;;;;;18.07;52.42;100301.72;4837142;28;99502;-71
2021/06/30 00:25:46;;;;;;;1999.90;999.90;;;;;;;18.09;52.34;100310.66;4824307;29;97216;-69
2021/06/30 00:28:19;;;;;;;1999.90;999.90;;;;;;;18.12;52.31;100307.91;4824248;29;100852;-71
2021/06/30 00:30:52;;;;;;;1999.90;999.90;;;;;;;18.12;52.39;100312.41;4823069;29;98713;-71
2021/06/30 00:33:24;;;;;;;1999.90;999.90;;;;;;;18.13;52.22;100315.06;4821224;29;99290;-71
2021/06/30 00:35:57;;;;;;;1999.90;999.90;;;;;;;18.16;52.08;100314.13;4823359;29;97909;-71
2021/06/30 00:38:31;;;;;;;1999.90;999.90;;;;;;;18.18;52.22;100315.91;4806858;29;99267;-71
2021/06/30 00:41:04;;;;;;;1999.90;999.90;;;;;;;18.18;52.22;100320.38;4824039;29;98655;-69
2021/06/30 00:43:36;;;;;;;1999.90;999.90;;;;;;;18.18;51.95;100315.91;4825224;29;99718;-70
2021/06/30 00:46:09;;;;;;;1999.90;999.90;;;;;;;18.17;52.27;100319.47;4813892;29;98191;-69
2021/06/30 00:48:39;;;;;;;1999.90;999.90;;;;;;;18.15;51.94;100325.84;4822948;29;99390;-69
2021/06/30 00:51:12;;;;;;;1999.90;999.90;;;;;;;18.15;52.17;100323.13;4822977;29;100344;-68
2021/06/30 00:53:46;;;;;;;1999.90;999.90;;;;;;;18.12;52.34;100320.47;4822322;29;98208;-71
2021/06/30 00:56:23;;;;;;;1999.90;999.90;;;;;;;18.15;52.14;100323.13;4823193;29;97383;-71
2021/06/30 00:58:57;;;;;;;1999.90;999.90;;;;;;;18.15;52.21;100315.06;4823961;29;98531;-69
2021/06/30 01:01:25;;;;;;;1999.90;999.90;;;;;;;18.14;52.16;100311.47;4822777;29;98964;-69
2021/06/30 01:03:58;;;;;;;1999.90;999.90;;;;;;;18.15;52.24;100312.38;4823102;29;97450;-70
2021/06/30 01:06:30;;;;;;;1999.90;999.90;;;;;;;18.12;52.39;100307.00;4822690;29;97146;-69
2021/06/30 01:09:06;;;;;;;1999.90;999.90;;;;;;;18.08;52.43;100305.28;4821468;29;99269;-71
2021/06/30 01:11:39;;;;;;;1999.90;999.90;;;;;;;18.05;52.35;100311.63;4825236;29;98043;-70
2021/06/30 01:14:12;;;;;;;1999.90;999.90;;;;;;;18.01;52.39;100321.53;4823232;29;97451;-71
2021/06/30 01:16:44;;;;;;;1999.90;999.90;;;;;;;17.98;52.42;100318.88;4823638;29;97442;-70
2021/06/30 01:19:12;;;;;;;1999.90;999.90;;;;;;;17.97;52.42;100325.19;4822548;29;99031;-71
2021/06/30 01:21:45;;;;;;;1999.90;999.90;;;;;;;17.96;52.30;100319.81;4825149;29;96958;-68
2021/06/30 01:24:19;;;;;;;1999.90;999.90;;;;;;;17.96;52.24;100325.22;4820537;29;97541;-68
2021/06/30 01:26:52;;;;;;;1999.90;999.90;;;;;;;17.93;52.19;100325.22;4821594;29;97632;-69
2021/06/30 01:29:25;;;;;;;1999.90;999.90;;;;;;;17.91;52.22;100322.56;4823056;29;99008;-71
2021/06/30 01:31:57;;;;;;;1999.90;999.90;;;;;;;17.90;52.32;100328.88;4806252;29;99372;-69
2021/06/30 01:34:30;;;;;;;1999.90;999.90;;;;;;;17.88;52.35;100324.44;4807354;29;97123;-70
2021/06/30 01:37:03;;;;;;;1999.90;999.90;;;;;;;17.86;52.38;100318.19;4822340;29;97008;-70
2021/06/30 01:39:37;;;;;;;1999.90;999.90;;;;;;;17.81;52.53;100307.50;4823740;29;98684;-70
2021/06/30 01:42:10;;;;;;;1999.90;999.90;;;;;;;17.81;52.50;100320.06;4823408;29;99130;-70
2021/06/30 01:44:42;;;;;;;1999.90;999.90;;;;;;;17.80;52.59;100316.47;4823120;29;97183;-69
2021/06/30 01:47:15;;;;;;;1999.90;999.90;;;;;;;17.77;52.69;100304.88;4823015;29;97992;-70
2021/06/30 01:49:48;;;;;;;1999.90;999.90;;;;;;;17.81;52.69;100307.50;4821756;29;99413;-70
2021/06/30 01:52:20;;;;;;;1999.90;999.90;;;;;;;17.81;52.58;100310.19;4821352;29;100413;-70
2021/06/30 01:54:54;;;;;;;1999.90;999.90;;;;;;;17.81;52.53;100307.50;4825277;29;97678;-70
2021/06/30 01:57:28;;;;;;;1999.90;999.90;;;;;;;17.76;52.60;100309.38;4822601;29;97212;-70
2021/06/30 02:00:01;;;;;;;1999.90;999.90;;;;;;;17.73;52.60;100308.53;4821615;29;98392;-69
2021/06/30 02:02:36;;;;;;;1999.90;999.90;;;;;;;17.69;52.66;100302.28;4800514;29;99166;-71
2021/06/30 02:05:10;;;;;;;1999.90;999.90;;;;;;;17.65;52.76;100299.69;4821136;29;96960;-71
2021/06/30 02:07:44;;;;;;;1999.90;999.90;;;;;;;17.63;52.73;100294.34;4822372;29;97106;-70
2021/06/30 02:10:14;;;;;;;1999.90;999.90;;;;;;;17.61;52.67;100296.16;4822767;29;99568;-69
2021/06/30 02:12:48;;;;;;;1999.90;999.90;;;;;;;17.60;52.66;100297.06;4821684;29;98568;-69
2021/06/30 02:15:24;;;;;;;1999.90;999.90;;;;;;;17.57;52.63;100291.72;4821780;29;97985;-70
2021/06/30 02:17:58;;;;;;;1999.90;999.90;;;;;;;17.56;52.76;100289.97;4823258;29;97649;-69
2021/06/30 02:20:31;;;;;;;1999.90;999.90;;;;;;;17.56;52.73;100286.38;4823600;29;98983;-70
2021/06/30 02:23:04;;;;;;;1999.90;999.90;;;;;;;17.56;52.77;100279.22;4821641;29;101075;-72
2021/06/30 02:25:38;;;;;;;1999.90;999.90;;;;;;;17.52;52.76;100276.56;4822371;29;97439;-71
2021/06/30 02:28:11;;;;;;;1999.90;999.90;;;;;;;17.50;52.90;100276.59;4820084;29;97753;-70
2021/06/30 02:30:43;;;;;;;1999.90;999.90;;;;;;;17.48;52.83;100275.72;4821973;29;98782;-70
2021/06/30 02:33:16;;;;;;;1999.90;999.90;;;;;;;17.49;52.82;100276.63;4821739;29;99618;-69
2021/06/30 02:35:49;;;;;;;1999.90;999.90;;;;;;;17.47;52.88;100273.97;4821766;29;97700;-70
2021/06/30 02:38:22;;;;;;;1999.90;999.90;;;;;;;17.48;52.83;100272.13;4820702;29;97443;-70
2021/06/30 02:40:56;;;;;;;1999.90;999.90;;;;;;;17.44;52.98;100282.06;4806180;29;100020;-70
2021/06/30 02:43:29;;;;;;;1999.90;999.90;;;;;;;17.46;52.90;100276.66;4819739;29;99233;-72
2021/06/30 02:46:02;;;;;;;1999.90;999.90;;;;;;;17.46;52.82;100274.88;4817979;29;96842;-70
2021/06/30 02:48:35;;;;;;;1999.90;999.90;;;;;;;17.40;52.90;100287.53;4821293;29;98180;-70
2021/06/30 02:51:08;;;;;;;1999.90;999.90;;;;;;;17.29;53.29;100276.88;4822530;29;99263;-71
2021/06/30 02:53:40;;;;;;;1999.90;999.90;;;;;;;17.23;53.40;100274.28;4821271;29;100553;-71
2021/06/30 02:56:14;;;;;;;1999.90;999.90;;;;;;;17.20;53.60;100278.81;4820534;29;99046;-71
2021/06/30 02:58:47;;;;;;;1999.90;999.90;;;;;;;17.22;53.61;100277.88;4822091;29;97119;-71
2021/06/30 03:01:20;;;;;;;1999.90;999.90;;;;;;;17.23;53.50;100285.03;4821543;29;100375;-69
2021/06/30 03:03:52;;;;;;;1999.90;999.90;;;;;;;17.24;53.47;100289.50;4819852;29;98385;-71
2021/06/30 03:06:20;;;;;;;1999.90;999.90;;;;;;;17.23;53.50;100303.88;4820602;29;97290;-70
2021/06/30 03:08:53;;;;;;;1999.90;999.90;;;;;;;17.18;53.93;100296.78;4821628;29;97070;-71
2021/06/30 03:11:27;;;;;;;1999.90;999.90;;;;;;;17.14;53.68;100298.63;4820461;29;99137;-72
2021/06/30 03:13:59;;;;;;;1999.90;999.90;;;;;;;17.11;53.75;100303.16;4819484;29;97986;-69
2021/06/30 03:16:32;;;;;;;1999.90;999.90;;;;;;;17.05;54.13;100302.28;4819621;29;97473;-71
2021/06/30 03:19:05;;;;;;;1999.90;999.90;;;;;;;17.01;53.91;100311.34;4819822;29;97410;-70
2021/06/30 03:21:37;;;;;;;1999.90;999.90;;;;;;;16.95;53.96;100322.16;4823035;29;97658;-71
2021/06/30 03:24:11;;;;;;;1999.90;999.90;;;;;;;16.81;54.48;100336.66;4821098;29;100009;-70
2021/06/30 03:26:45;;;;;;;1999.90;999.90;;;;;;;16.68;54.78;100329.59;4820102;29;97826;-71
2021/06/30 03:29:17;;;;;;;1999.90;999.90;;;;;;;16.57;54.94;100329.72;4819441;29;97989;-70
2021/06/30 03:31:50;;;;;;;1999.90;999.90;;;;;;;16.51;55.22;100328.88;4822052;29;97314;-70
2021/06/30 03:34:23;;;;;;;1999.90;999.90;;;;;;;16.47;55.36;100328.03;4820407;29;98540;-72
2021/06/30 03:36:56;;;;;;;1999.90;999.90;;;;;;;16.45;55.34;100328.97;4821497;29;97753;-71
2021/06/30 03:39:28;;;;;;;1999.90;999.90;;;;;;;16.43;55.46;100325.41;4821012;29;97704;-71
2021/06/30 03:42:03;;;;;;;1999.90;999.90;;;;;;;16.42;55.37;100318.22;4821412;29;98567;-70
2021/06/30 03:44:35;;;;;;;1999.90;999.90;;;;;;;16.34;55.37;100325.50;4821502;29;98947;-70
2021/06/30 03:47:08;;;;;;;1999.90;999.90;;;;;;;16.25;55.48;100323.75;4820610;29;97344;-70
2021/06/30 03:49:40;;;;;;;1999.90;999.90;;;;;;;16.23;55.73;100333.66;4822461;29;96980;-70
2021/06/30 03:52:13;;;;;;;1999.90;999.90;;;;;;;16.20;55.24;100336.34;4821466;29;99273;-71
2021/06/30 03:54:47;;;;;;;1999.90;999.90;;;;;;;16.23;55.55;100338.13;4821273;29;99554;-70
2021/06/30 03:57:21;;;;;;;1999.90;999.90;;;;;;;16.25;55.21;100347.91;4810193;29;97913;-73
2021/06/30 03:59:54;;;;;;;1999.90;999.90;;;;;;;16.26;54.78;100338.97;4819591;29;97711;-70
2021/06/30 04:02:27;;;;;;;1999.90;999.90;;;;;;;16.21;54.88;100342.63;4828763;28;98995;-72
2021/06/30 04:04:59;;;;;;;1999.90;999.90;;;;;;;16.21;54.73;100345.31;4817717;29;98056;-70
2021/06/30 04:07:32;;;;;;;1999.90;999.90;;;;;;;16.13;55.09;100345.34;4819038;29;98352;-70
2021/06/30 04:10:05;;;;;;;1999.90;999.90;;;;;;;16.11;54.93;100347.16;4819309;29;97305;-71
2021/06/30 04:12:39;;;;;;;1999.90;999.90;;;;;;;16.12;54.76;100351.66;4818107;29;97971;-70
2021/06/30 04:15:13;;;;;;;1999.90;999.90;;;;;;;16.15;54.96;100350.72;4816880;29;99405;-70
2021/06/30 04:17:46;;;;;;;1999.90;999.90;;;;;;;16.14;54.79;100351.63;4818797;29;97450;-70
2021/06/30 04:20:18;;;;;;;1999.90;999.90;;;;;;;16.04;54.66;100348.13;4814813;28;97431;-70
2021/06/30 04:22:46;;;;;;;1999.90;999.90;;;;;;;15.89;54.86;100345.50;4812656;29;98117;-70
2021/06/30 04:25:19;;;;;;;1999.90;999.90;;;;;;;15.90;55.08;100344.63;4801918;29;100283;-70
2021/06/30 04:27:53;;;;;;;1999.90;999.90;;;;;;;15.94;54.68;100341.91;4793553;29;97223;-71
2021/06/30 04:30:25;;;;;;;1999.90;999.90;;;;;;;15.90;54.52;100340.13;4823048;29;98026;-71
2021/06/30 04:32:58;;;;;;;1999.90;999.90;;;;;;;15.91;54.35;100330.28;4823663;29;97935;-71
2021/06/30 04:35:26;;;;;;;1999.90;999.90;;;;;;;15.96;54.50;100329.34;4821850;29;100576;-71
2021/06/30 04:38:00;;;;;;;1999.90;999.90;;;;;;;15.86;54.27;100326.75;4823157;29;97104;-71
2021/06/30 04:40:33;;;;;;;1999.90;999.90;;;;;;;15.85;54.34;100327.66;4821648;29;97517;-70
2021/06/30 04:43:02;;;;;;;1999.90;999.90;;;;;;;15.86;53.76;100327.66;4824094;29;99127;-70
2021/06/30 04:45:35;;;;;;;1999.90;999.90;;;;;;;15.79;54.06;100315.19;4827002;28;99636;-70
2021/06/30 04:48:08;;;;;;;1999.90;999.90;;;;;;;15.73;53.89;100308.97;4817733;29;97253;-71
2021/06/30 04:50:40;;;;;;;1999.90;999.90;;;;;;;15.67;54.05;100304.53;4822631;29;97283;-71
2021/06/30 04:53:13;;;;;;;1999.90;999.90;;;;;;;15.68;54.36;100305.44;4815996;29;97967;-71
2021/06/30 04:55:46;;;;;;;1999.90;999.90;;;;;;;15.70;54.21;100303.66;4808102;29;98825;-73
2021/06/30 04:58:20;;;;;;;1999.90;999.90;;;;;;;15.63;54.29;100300.09;4805544;29;97480;-70
2021/06/30 05:00:54;;;;;;;1999.90;999.90;;;;;;;15.61;54.37;100304.56;4825457;29;97460;-70
2021/06/30 05:03:28;;;;;;;1999.90;999.90;;;;;;;15.63;54.08;100300.09;4823380;29;97733;-72
2021/06/30 05:06:01;;;;;;;1999.90;999.90;;;;;;;15.65;54.09;100302.78;4823263;29;98150;-71
2021/06/30 05:08:33;;;;;;;1999.90;999.90;;;;;;;15.67;54.03;100304.53;4809204;29;97497;-69
2021/06/30 05:11:06;;;;;;;1999.90;999.90;;;;;;;15.67;54.32;100309.00;4807788;29;97600;-70
2021/06/30 05:13:41;;;;;;;1999.90;999.90;;;;;;;15.71;54.24;100309.00;4818163;29;102657;-71
2021/06/30 05:16:08;;;;;;;1999.90;999.90;;;;;;;15.78;54.14;100308.03;4806625;29;96945;-73
2021/06/30 05:18:41;;;;;;;1999.90;999.90;;;;;;;15.84;53.94;100313.38;4827808;28;99332;-72
2021/06/30 05:21:14;;;;;;;1999.90;999.90;;;;;;;15.86;53.65;100324.09;4808913;29;97228;-71
2021/06/30 05:23:47;;;;;;;1999.90;999.90;;;;;;;15.88;53.30;100324.97;4821408;29;99992;-72
2021/06/30 05:26:19;;;;;;;1999.90;999.90;;;;;;;15.86;53.57;100322.31;4823287;29;100706;-70
2021/06/30 05:28:53;;;;;;;1999.90;999.90;;;;;;;15.83;53.23;100319.63;4822628;29;97776;-71
2021/06/30 05:31:26;;;;;;;1999.90;999.90;;;;;;;15.85;53.04;100330.34;4808304;29;98251;-72
2021/06/30 05:33:59;;;;;;;1999.90;999.90;;;;;;;15.79;53.13;100327.72;4822476;29;97727;-70
2021/06/30 05:36:31;;;;;;;1999.90;999.90;;;;;;;15.76;53.03;100325.03;4820430;29;98208;-70
2021/06/30 05:39:05;;;;;;;1999.90;999.90;;;;;;;15.72;53.53;100321.50;4822252;29;97365;-73
2021/06/30 05:41:32;;;;;;;1999.90;999.90;;;;;;;15.73;53.22;100320.59;4823831;29;97657;-72
2021/06/30 05:44:08;;;;;;;1999.90;999.90;;;;;;;15.74;53.42;100324.19;4823717;29;99291;-69
2021/06/30 05:46:41;;;;;;;1999.90;999.90;;;;;;;15.76;52.96;100314.31;4823274;29;97991;-71
2021/06/30 05:49:16;;;;;;;1999.90;999.90;;;;;;;15.80;53.10;100311.59;4824705;29;97242;-70
2021/06/30 05:51:49;;;;;;;1999.90;999.90;;;;;;;15.80;52.86;100306.25;4821010;29;97506;-70
2021/06/30 05:54:21;;;;;;;1999.90;999.90;;;;;;;15.82;53.25;100308.91;4823598;29;98103;-71
2021/06/30 05:56:54;;;;;;;1999.90;999.90;;;;;;;15.82;52.81;100304.44;4807119;29;97893;-70
2021/06/30 05:59:28;;;;;;;1999.90;999.90;;;;;;;15.87;52.82;100307.06;4807802;29;97485;-72
2021/06/30 06:01:56;;;;;;;1999.90;999.90;;;;;;;15.93;53.00;100307.03;4806476;29;97566;-71
2021/06/30 06:04:28;;;;;;;1999.90;999.90;;;;;;;15.98;52.90;100310.56;4822584;29;98153;-72
2021/06/30 06:07:01;;;;;;;1999.90;999.90;;;;;;;16.03;52.54;100308.78;4807380;29;99542;-72
2021/06/30 06:09:34;;;;;;;1999.90;999.90;;;;;;;16.09;52.28;100317.66;4824723;29;97213;-70
2021/06/30 06:12:07;;;;;;;1999.90;999.90;;;;;;;16.18;52.12;100319.34;4823184;29;97162;-70
2021/06/30 06:14:41;;;;;;;1999.90;999.90;;;;;;;16.26;52.41;100330.03;4822602;29;98227;-68
2021/06/30 06:17:14;;;;;;;1999.90;999.90;;;;;;;16.29;52.19;100320.16;4821078;29;98484;-69
2021/06/30 06:19:46;;;;;;;1999.90;999.90;;;;;;;16.35;51.99;100320.09;4814147;29;96929;-68
2021/06/30 06:22:19;;;;;;;1999.90;999.90;;;;;;;16.38;51.83;100319.19;4818456;29;97452;-68
2021/06/30 06:24:55;;;;;;;1999.90;999.90;;;;;;;16.42;51.85;100326.28;4818206;29;98979;-68
2021/06/30 06:27:27;;;;;;;1999.90;999.90;;;;;;;16.43;51.34;100331.66;4820610;29;98708;-69
2021/06/30 06:30:01;;;;;;;1999.90;999.90;;;;;;;16.44;51.59;100333.44;4834582;28;97032;-69
2021/06/30 06:32:34;;;;;;;1999.90;999.90;;;;;;;16.46;51.86;100333.41;4821296;29;99235;-68
2021/06/30 06:35:08;;;;;;;1999.90;999.90;;;;;;;16.47;51.55;100333.41;4822312;29;99186;-69
2021/06/30 06:37:41;;;;;;;1999.90;999.90;;;;;;;16.49;51.27;100336.09;4822447;29;101207;-70
2021/06/30 06:40:14;;;;;;;1999.90;999.90;;;;;;;16.43;51.31;100330.78;4822730;29;97350;-68
2021/06/30 06:42:42;;;;;;;1999.90;999.90;;;;;;;16.41;51.40;100328.09;4822546;29;97500;-70
2021/06/30 06:45:16;;;;;;;1999.90;999.90;;;;;;;16.39;51.48;100329.00;4837679;28;100575;-70
2021/06/30 06:47:48;;;;;;;1999.90;999.90;;;;;;;16.41;51.44;100332.56;4822221;29;99703;-69
2021/06/30 06:50:21;;;;;;;1999.90;999.90;;;;;;;16.42;51.43;100337.94;4834419;28;97279;-70
2021/06/30 06:52:54;;;;;;;1999.90;999.90;;;;;;;16.42;51.84;100328.97;4819395;29;97297;-70
2021/06/30 06:55:27;;;;;;;1999.90;999.90;;;;;;;16.42;51.81;100328.97;4820865;29;99024;-71
2021/06/30 06:58:00;;;;;;;1999.90;999.90;;;;;;;16.40;51.98;100330.78;4818901;29;97720;-71
2021/06/30 07:00:34;;;;;;;1999.90;999.90;;;;;;;16.36;51.60;100327.22;4823327;29;97735;-71
2021/06/30 07:03:02;;;;;;;1999.90;999.90;;;;;;;16.33;52.16;100334.44;4821169;29;97234;-69
2021/06/30 07:05:34;;;;;;;1999.90;999.90;;;;;;;16.28;52.19;100337.19;4823034;29;100624;-72
2021/06/30 07:08:07;;;;;;;1999.90;999.90;;;;;;;16.33;52.02;100335.34;4823027;29;97972;-70
2021/06/30 07:10:40;;;;;;;1999.90;999.90;;;;;;;16.31;51.84;100344.28;4806398;29;97697;-70
2021/06/30 07:13:13;;;;;;;1999.90;999.90;;;;;;;16.28;52.03;100347.91;4807431;29;97460;-69
2021/06/30 07:15:47;;;;;;;1999.90;999.90;;;;;;;16.29;52.27;100351.50;4823686;29;98723;-70
2021/06/30 07:18:19;;;;;;;1999.90;999.90;;;;;;;16.26;52.40;100357.78;4822049;29;97810;-71
2021/06/30 07:20:47;;;;;;;1999.90;999.90;;;;;;;16.26;52.21;100351.50;4821764;29;97851;-70
2021/06/30 07:23:20;;;;;;;1999.90;999.90;;;;;;;16.28;51.93;100358.66;4811994;29;98792;-71
2021/06/30 07:25:52;;;;;;;1999.90;999.90;;;;;;;16.24;52.10;100356.00;4822210;29;100540;-69
2021/06/30 07:28:25;;;;;;;1999.90;999.90;;;;;;;16.19;52.32;100353.38;4819398;29;99521;-69
2021/06/30 07:30:59;;;;;;;1999.90;999.90;;;;;;;16.17;52.54;100360.53;4822150;29;97372;-70
2021/06/30 07:33:31;;;;;;;1999.90;999.90;;;;;;;16.13;52.17;100355.19;4822026;29;97096;-69
2021/06/30 07:36:04;;;;;;;1999.90;999.90;;;;;;;16.08;52.13;100355.25;4820050;29;99238;-70
2021/06/30 07:38:38;;;;;;;1999.90;999.90;;;;;;;16.06;52.19;100352.59;4822180;29;97370;-69
2021/06/30 07:41:10;;;;;;;1999.90;999.90;;;;;;;16.03;52.56;100344.53;4822529;29;97545;-68
2021/06/30 07:43:43;;;;;;;1999.90;999.90;;;;;;;15.99;52.45;100348.13;4822676;29;97426;-69
2021/06/30 07:46:12;;;;;;;1999.90;999.90;;;;;;;15.99;52.41;100355.28;4821398;29;98885;-68
2021/06/30 07:48:40;;;;;;;1999.90;999.90;;;;;;;15.98;52.70;100350.81;4822500;29;99542;-69
2021/06/30 07:51:08;;;;;;;1999.90;999.90;;;;;;;15.99;52.64;100345.47;4822415;29;98078;-70
2021/06/30 07:53:35;;;;;;;1999.90;999.90;;;;;;;15.97;52.42;100352.63;4820867;29;97740;-71
2021/06/30 07:56:03;;;;;;;1999.90;999.90;;;;;;;15.93;52.51;100361.59;4823813;29;97367;-69
2021/06/30 07:58:31;;;;;;;1999.90;999.90;;;;;;;15.91;52.84;100355.34;4821323;29;100524;-68
2021/06/30 08:01:00;;;;;;;1999.90;999.90;;;;;;;15.90;52.68;100356.22;4821830;29;96831;-69
2021/06/30 08:03:29;;;;;;;1999.90;999.90;;;;;;;15.86;52.72;100358.97;4824250;29;97492;-69
2021/06/30 08:05:57;;;;;;;1999.90;999.90;;;;;;;15.86;52.83;100349.13;4824380;29;99576;-70
2021/06/30 08:08:24;;;;;;;1999.90;999.90;;;;;;;15.92;52.98;100354.44;4825641;29;97911;-70
2021/06/30 08:10:52;;;;;;;1999.90;999.90;;;;;;;15.94;52.76;100358.00;4825082;29;97123;-70
2021/06/30 08:13:20;;;;;;;1999.90;999.90;;;;;;;15.96;52.87;100363.34;4826359;29;97792;-70
2021/06/30 08:15:48;;;;;;;1999.90;999.90;;;;;;;15.91;53.39;100359.81;4809315;29;100764;-69
2021/06/30 08:18:16;;;;;;;1999.90;999.90;;;;;;;15.93;53.00;100364.28;4823878;29;99931;-69
2021/06/30 08:20:50;;;;;;;1999.90;999.90;;;;;;;15.93;52.93;100366.06;4824136;29;97680;-69
2021/06/30 08:23:18;;;;;;;1999.90;999.90;;;;;;;15.91;52.68;100363.41;4825742;29;97323;-69
2021/06/30 08:25:46;;;;;;;1999.90;999.90;;;;;;;15.91;53.14;100367.88;4824271;29;97736;-70
2021/06/30 08:28:18;;;;;;;1999.90;999.90;;;;;;;15.93;52.80;100371.44;4823628;29;99737;-69
2021/06/30 08:30:46;;;;;;;1999.90;999.90;;;;;;;15.93;52.95;100374.13;4808784;29;97629;-68
2021/06/30 08:33:13;;;;;;;1999.90;999.90;;;;;;;15.91;53.06;100373.22;4825936;29;97934;-67
2021/06/30 08:35:41;;;;;;;1999.90;999.90;;;;;;;15.85;53.05;100368.78;4825265;29;98764;-68
2021/06/30 08:38:10;;;;;;;1999.90;999.90;;;;;;;15.81;52.85;100367.03;4823167;29;97694;-70
2021/06/30 08:40:38;;;;;;;1999.90;999.90;;;;;;;15.87;52.89;100376.81;4824785;29;97264;-70
2021/06/30 08:43:07;;;;;;;1999.90;999.90;;;;;;;15.87;52.87;100372.38;4825946;29;98158;-68
2021/06/30 08:45:36;;;;;;;1999.90;999.90;;;;;;;15.85;52.92;100374.16;4823491;29;99449;-69
2021/06/30 08:48:04;;;;;;;1999.90;999.90;;;;;;;15.89;53.01;100375.03;4823650;29;97708;-69
2021/06/30 08:50:34;;;;;;;1999.90;999.90;;;;;;;15.86;53.25;100385.81;4826108;29;97922;-71
2021/06/30 08:53:03;;;;;;;1999.90;999.90;;;;;;;15.91;53.23;100381.28;4824661;29;98188;-70
2021/06/30 08:55:38;;;;;;;1999.90;999.90;;;;;;;15.89;53.15;100391.13;4825052;29;98734;-69
2021/06/30 08:58:06;;;;;;;1999.90;999.90;;;;;;;15.87;53.15;100392.94;4823479;29;99761;-69
2021/06/30 09:00:34;;;;;;;1999.90;999.90;;;;;;;15.84;53.17;100392.97;4825534;29;97335;-70
2021/06/30 09:03:02;;;;;;;1999.90;999.90;;;;;;;15.79;53.38;100397.47;4825292;29;97168;-69
2021/06/30 09:05:48;;;;;;;1999.90;999.90;;;;;;;15.83;53.15;100412.66;4807971;29;99543;-69
2021/06/30 09:08:16;;;;;;;1999.90;999.90;;;;;;;15.74;53.60;100400.16;4824149;29;97991;-68
2021/06/30 09:10:45;;;;;;;1999.90;999.90;;;;;;;15.70;53.33;100413.63;4825205;29;97441;-69
2021/06/30 09:13:19;;;;;;;1999.90;999.90;;;;;;;15.66;53.44;100406.50;4823402;29;98482;-71
2021/06/30 09:15:57;;;;;;;1999.90;999.90;;;;;;;15.58;53.30;100409.22;4825389;29;98169;-68
2021/06/30 09:18:28;;;;;;;1999.90;999.90;;;;;;;15.56;53.19;100408.31;4823809;29;101656;-70
2021/06/30 09:21:17;;;;;;;1999.90;999.90;;;;;;;15.51;53.54;100420.88;4826110;29;97339;-69
2021/06/30 09:23:58;;;;;;;1999.90;999.90;;;;;;;15.44;53.38;100418.22;4823612;29;97765;-69
2021/06/30 09:26:28;;;;;;;1999.90;999.90;;;;;;;15.40;53.77;100428.06;4807638;29;97803;-69
2021/06/30 09:29:03;;;;;;;1999.90;999.90;;;;;;;15.31;53.97;100433.47;4824965;29;99073;-70
2021/06/30 09:31:31;;;;;;;1999.90;999.90;;;;;;;15.24;53.92;100430.78;4807618;29;97564;-70
2021/06/30 09:33:59;;;;;;;1999.90;999.90;;;;;;;15.17;54.29;100419.19;4824867;29;96972;-70
2021/06/30 09:36:31;;;;;;;1999.90;999.90;;;;;;;15.10;54.26;100425.47;4806291;29;100972;-71
2021/06/30 09:39:07;;;;;;;1999.90;999.90;;;;;;;14.53;56.07;100426.44;4825376;29;98673;-70
2021/06/30 09:41:38;;;;;;;1999.90;999.90;;;;;;;14.38;56.48;100437.16;4825007;29;97156;-69
2021/06/30 09:44:09;;;;;;;1999.90;999.90;;;;;;;14.69;55.77;100441.63;4808249;29;97928;-71
2021/06/30 09:46:37;;;;;;;1999.90;999.90;;;;;;;14.74;55.76;100445.19;4822160;29;100231;-69
2021/06/30 09:49:06;;;;;;;1999.90;999.90;;;;;;;14.73;55.52;100443.41;4823527;29;99228;-70
2021/06/30 09:51:36;;;;;;;1999.90;999.90;;;;;;;14.74;55.73;100444.28;4824766;29;97990;-70
2021/06/30 09:54:07;;;;;;;1999.90;999.90;;;;;;;14.72;55.85;100440.72;4823647;28;97005;-69
2021/06/30 09:56:37;;;;;;;1999.90;999.90;;;;;;;14.70;55.94;100453.25;4824038;29;98912;-69
2021/06/30 09:59:25;;;;;;;1999.90;999.90;;;;;;;14.26;56.97;100446.97;4825775;29;97806;-69
2021/06/30 10:01:55;;;;;;;1999.90;999.90;;;;;;;14.48;56.40;100448.75;4805944;29;98177;-68
2021/06/30 10:04:25;;;;;;;1999.90;999.90;;;;;;;14.50;56.43;100446.97;4823686;29;97299;-72
2021/06/30 10:06:56;;;;;;;1999.90;999.90;;;;;;;14.01;57.80;100454.94;4821594;29;100257;-70
2021/06/30 10:09:24;;;;;;;1999.90;999.90;;;;;;;13.78;58.14;100456.66;4822532;29;99510;-71
2021/06/30 10:12:05;;;;;;;1999.90;999.90;;;;;;;13.61;59.00;100461.03;4815610;29;97341;-72
2021/06/30 10:14:34;;;;;;;1999.90;999.90;;;;;;;13.49;58.92;100463.69;4824104;29;96924;-69
2021/06/30 10:17:02;;;;;;;1999.90;999.90;;;;;;;13.36;58.88;100469.84;4820827;29;98556;-71
2021/06/30 10:19:31;;;;;;;1999.90;999.90;;;;;;;13.24;59.17;100461.75;4822333;29;100796;-71
2021/06/30 10:21:58;;;;;;;1999.90;999.90;;;;;;;13.64;58.37;100455.69;4822730;29;96912;-71
2021/06/30 10:24:26;;;;;;;1999.90;999.90;;;;;;;13.79;58.46;100466.47;4821184;29;97685;-69
2021/06/30 10:26:55;;;;;;;1999.90;999.90;;;;;;;13.86;58.29;100470.94;4821231;29;101490;-71
2021/06/30 10:29:29;;;;;;;1999.90;999.90;;;;;;;13.87;58.38;100462.06;4821182;29;97637;-71
2021/06/30 10:32:04;;;;;;;1999.90;999.90;;;;;;;13.88;58.30;100466.50;4823247;29;97043;-72
2021/06/30 10:34:38;;;;;;;1999.90;999.90;;;;;;;13.88;58.54;100447.78;4823380;29;98342;-70
2021/06/30 10:37:18;;;;;;;1999.90;999.90;;;;;;;13.89;58.44;100454.03;4822134;29;100036;-70
2021/06/30 10:39:47;;;;;;;1999.90;999.90;;;;;;;13.90;58.48;100462.06;4824321;29;97370;-70
2021/06/30 10:42:18;;;;;;;1999.90;999.90;;;;;;;13.88;58.52;100463.84;4820676;29;97168;-70
2021/06/30 10:44:48;;;;;;;1999.90;999.90;;;;;;;13.44;59.80;100454.72;4822541;29;97153;-71
2021/06/30 10:47:31;;;;;;;1999.90;999.90;;;;;;;13.75;58.99;100466.44;4819890;29;100400;-70
2021/06/30 10:50:22;;;;;;;1999.90;999.90;;;;;;;13.81;59.04;100464.72;4823988;29;97607;-70
2021/06/30 10:52:52;;;;;;;1999.90;999.90;;;;;;;13.84;58.90;100478.06;4821848;29;96875;-70
2021/06/30 10:55:47;;;;;;;1999.90;999.90;;;;;;;13.82;58.99;100485.19;4822151;29;97678;-69
2021/06/30 10:58:16;;;;;;;1999.90;999.90;;;;;;;13.84;59.36;100493.25;4821269;29;97539;-70
2021/06/30 11:00:48;;;;;;;1999.90;999.90;;;;;;;13.80;59.39;100484.34;4820800;29;99556;-70
2021/06/30 11:03:29;;;;;;;1999.90;999.90;;;;;;;13.77;59.15;100489.63;4822080;29;97950;-70
2021/06/30 11:06:23;;;;;;;1999.90;999.90;;;;;;;13.72;59.31;100483.38;4820571;29;98973;-71
2021/06/30 11:08:53;;;;;;;1999.90;999.90;;;;;;;13.75;59.38;100488.72;4817993;29;98736;-70